sensor_id;sensor_type;location;lat;lon;timestamp;P1;durP1;ratioP1;P2;durP2;ratioP2
2912;SDS011;1466;48.778;9.166;2024-03-07T00:02:19;59.20;;;23.30;;
2912;SDS011;1466;48.778;9.166;2024-03-07T00:04:45;58.53;;;21.50;;
2912;SDS011;1466;48.778;9.166;2024-03-07T00:07:10;55.07;;;24.00;;
2912;SDS011;1466;48.778;9.166;2024-03-07T00:09:36;36.60;;;18.00;;
2912;SDS011;1466;48.778;9.166;2024-03-07T00:12:03;51.53;;;23.87;;
2912;SDS011;1466;48.778;9.166;2024-03-07T00:14:29;50.42;;;22.17;;
2912;SDS011;1466;48.778;9.166;2024-03-07T00:16:56;51.88;;;21.95;;
2912;SDS011;1466;48.778;9.166;2024-03-07T00:19:24;45.40;;;22.52;;
2912;SDS011;1466;48.778;9.166;2024-03-07T00:21:54;57.83;;;22.95;;
2912;SDS011;1466;48.778;9.166;2024-03-07T00:24:23;49.70;;;23.20;;
2912;SDS011;1466;48.778;9.166;2024-03-07T00:26:49;45.67;;;21.70;;
2912;SDS011;1466;48.778;9.166;2024-03-07T00:29:16;39.53;;;19.17;;
2912;SDS011;1466;48.778;9.166;2024-03-07T00:31:45;51.83;;;22.23;;
2912;SDS011;1466;48.778;9.166;2024-03-07T00:34:12;48.35;;;22.70;;
2912;SDS011;1466;48.778;9.166;2024-03-07T00:36:41;46.38;;;23.33;;
2912;SDS011;1466;48.778;9.166;2024-03-07T00:39:06;50.00;;;22.90;;
2912;SDS011;1466;48.778;9.166;2024-03-07T00:41:33;59.58;;;23.90;;
2912;SDS011;1466;48.778;9.166;2024-03-07T00:43:59;51.93;;;22.60;;
2912;SDS011;1466;48.778;9.166;2024-03-07T00:46:25;49.80;;;22.50;;
2912;SDS011;1466;48.778;9.166;2024-03-07T00:48:50;50.97;;;21.90;;
2912;SDS011;1466;48.778;9.166;2024-03-07T00:51:16;51.67;;;22.50;;
2912;SDS011;1466;48.778;9.166;2024-03-07T00:53:41;48.53;;;21.63;;
2912;SDS011;1466;48.778;9.166;2024-03-07T00:56:07;50.13;;;22.47;;
2912;SDS011;1466;48.778;9.166;2024-03-07T00:58:32;50.13;;;23.83;;
2912;SDS011;1466;48.778;9.166;2024-03-07T01:00:58;47.70;;;21.60;;
2912;SDS011;1466;48.778;9.166;2024-03-07T01:03:23;51.93;;;23.07;;
2912;SDS011;1466;48.778;9.166;2024-03-07T01:05:49;52.33;;;22.20;;
2912;SDS011;1466;48.778;9.166;2024-03-07T01:08:15;57.97;;;23.30;;
2912;SDS011;1466;48.778;9.166;2024-03-07T01:10:40;52.93;;;22.37;;
2912;SDS011;1466;48.778;9.166;2024-03-07T01:13:06;55.97;;;22.10;;
2912;SDS011;1466;48.778;9.166;2024-03-07T01:15:34;54.88;;;22.95;;
2912;SDS011;1466;48.778;9.166;2024-03-07T01:17:59;68.37;;;23.37;;
2912;SDS011;1466;48.778;9.166;2024-03-07T01:20:25;47.87;;;22.13;;
2912;SDS011;1466;48.778;9.166;2024-03-07T01:22:51;46.33;;;21.40;;
2912;SDS011;1466;48.778;9.166;2024-03-07T01:25:17;54.75;;;24.80;;
2912;SDS011;1466;48.778;9.166;2024-03-07T01:27:43;58.45;;;23.92;;
2912;SDS011;1466;48.778;9.166;2024-03-07T01:30:09;56.03;;;23.37;;
2912;SDS011;1466;48.778;9.166;2024-03-07T01:32:35;60.78;;;24.02;;
2912;SDS011;1466;48.778;9.166;2024-03-07T01:35:01;47.50;;;22.57;;
2912;SDS011;1466;48.778;9.166;2024-03-07T01:37:27;61.63;;;25.27;;
2912;SDS011;1466;48.778;9.166;2024-03-07T01:39:53;50.92;;;23.60;;
2912;SDS011;1466;48.778;9.166;2024-03-07T01:42:19;46.97;;;23.27;;
2912;SDS011;1466;48.778;9.166;2024-03-07T01:44:44;55.07;;;25.40;;
2912;SDS011;1466;48.778;9.166;2024-03-07T01:47:10;71.13;;;25.27;;
2912;SDS011;1466;48.778;9.166;2024-03-07T01:49:36;69.07;;;28.20;;
2912;SDS011;1466;48.778;9.166;2024-03-07T01:52:04;55.67;;;25.33;;
2912;SDS011;1466;48.778;9.166;2024-03-07T01:54:32;61.28;;;25.02;;
2912;SDS011;1466;48.778;9.166;2024-03-07T01:56:59;52.58;;;24.38;;
2912;SDS011;1466;48.778;9.166;2024-03-07T01:59:26;52.55;;;22.70;;
2912;SDS011;1466;48.778;9.166;2024-03-07T02:01:55;57.50;;;24.65;;
2912;SDS011;1466;48.778;9.166;2024-03-07T02:04:21;61.60;;;25.05;;
2912;SDS011;1466;48.778;9.166;2024-03-07T02:06:48;45.95;;;19.42;;
2912;SDS011;1466;48.778;9.166;2024-03-07T02:09:14;52.40;;;24.58;;
2912;SDS011;1466;48.778;9.166;2024-03-07T02:11:40;52.57;;;24.17;;
2912;SDS011;1466;48.778;9.166;2024-03-07T02:14:06;50.70;;;23.63;;
2912;SDS011;1466;48.778;9.166;2024-03-07T02:16:31;51.17;;;24.53;;
2912;SDS011;1466;48.778;9.166;2024-03-07T02:18:57;73.57;;;25.70;;
2912;SDS011;1466;48.778;9.166;2024-03-07T02:21:24;58.92;;;26.35;;
2912;SDS011;1466;48.778;9.166;2024-03-07T02:23:50;54.03;;;24.80;;
2912;SDS011;1466;48.778;9.166;2024-03-07T02:26:16;66.33;;;26.37;;
2912;SDS011;1466;48.778;9.166;2024-03-07T02:28:42;55.67;;;26.97;;
2912;SDS011;1466;48.778;9.166;2024-03-07T02:31:07;51.87;;;24.20;;
2912;SDS011;1466;48.778;9.166;2024-03-07T02:33:33;53.87;;;25.13;;
2912;SDS011;1466;48.778;9.166;2024-03-07T02:35:58;53.20;;;24.43;;
2912;SDS011;1466;48.778;9.166;2024-03-07T02:38:24;55.40;;;27.97;;
2912;SDS011;1466;48.778;9.166;2024-03-07T02:40:49;53.27;;;24.57;;
2912;SDS011;1466;48.778;9.166;2024-03-07T02:43:15;56.10;;;24.80;;
2912;SDS011;1466;48.778;9.166;2024-03-07T02:45:41;66.17;;;28.80;;
2912;SDS011;1466;48.778;9.166;2024-03-07T02:48:06;66.97;;;27.87;;
2912;SDS011;1466;48.778;9.166;2024-03-07T02:50:37;71.80;;;26.92;;
2912;SDS011;1466;48.778;9.166;2024-03-07T02:53:03;53.70;;;25.88;;
2912;SDS011;1466;48.778;9.166;2024-03-07T02:55:29;57.50;;;24.95;;
2912;SDS011;1466;48.778;9.166;2024-03-07T02:57:56;62.15;;;28.23;;
2912;SDS011;1466;48.778;9.166;2024-03-07T03:00:24;57.03;;;26.27;;
2912;SDS011;1466;48.778;9.166;2024-03-07T03:02:54;57.75;;;26.83;;
2912;SDS011;1466;48.778;9.166;2024-03-07T03:05:21;56.70;;;25.77;;
2912;SDS011;1466;48.778;9.166;2024-03-07T03:07:47;53.88;;;26.63;;
2912;SDS011;1466;48.778;9.166;2024-03-07T03:10:22;60.80;;;24.60;;
2912;SDS011;1466;48.778;9.166;2024-03-07T03:12:54;62.10;;;27.58;;
2912;SDS011;1466;48.778;9.166;2024-03-07T03:15:22;62.85;;;26.88;;
2912;SDS011;1466;48.778;9.166;2024-03-07T03:17:48;49.50;;;23.50;;
2912;SDS011;1466;48.778;9.166;2024-03-07T03:20:14;51.17;;;24.10;;
2912;SDS011;1466;48.778;9.166;2024-03-07T03:22:49;50.40;;;25.45;;
2912;SDS011;1466;48.778;9.166;2024-03-07T03:25:16;57.50;;;24.90;;
2912;SDS011;1466;48.778;9.166;2024-03-07T03:27:42;55.00;;;26.38;;
2912;SDS011;1466;48.778;9.166;2024-03-07T03:30:08;60.27;;;26.00;;
2912;SDS011;1466;48.778;9.166;2024-03-07T03:32:38;72.68;;;27.77;;
2912;SDS011;1466;48.778;9.166;2024-03-07T03:35:04;56.63;;;26.25;;
2912;SDS011;1466;48.778;9.166;2024-03-07T03:37:30;62.72;;;27.88;;
2912;SDS011;1466;48.778;9.166;2024-03-07T03:39:56;61.57;;;27.70;;
2912;SDS011;1466;48.778;9.166;2024-03-07T03:42:21;64.40;;;29.00;;
2912;SDS011;1466;48.778;9.166;2024-03-07T03:44:47;56.23;;;24.93;;
2912;SDS011;1466;48.778;9.166;2024-03-07T03:47:13;58.27;;;26.43;;
2912;SDS011;1466;48.778;9.166;2024-03-07T03:49:39;77.80;;;30.07;;
2912;SDS011;1466;48.778;9.166;2024-03-07T03:52:04;66.07;;;28.20;;
2912;SDS011;1466;48.778;9.166;2024-03-07T03:54:30;59.20;;;26.23;;
2912;SDS011;1466;48.778;9.166;2024-03-07T03:56:55;64.60;;;27.93;;
2912;SDS011;1466;48.778;9.166;2024-03-07T03:59:21;57.93;;;26.53;;
2912;SDS011;1466;48.778;9.166;2024-03-07T04:01:46;61.00;;;27.07;;
2912;SDS011;1466;48.778;9.166;2024-03-07T04:04:13;62.88;;;28.52;;
2912;SDS011;1466;48.778;9.166;2024-03-07T04:06:38;57.80;;;27.00;;
2912;SDS011;1466;48.778;9.166;2024-03-07T04:09:05;59.20;;;26.40;;
2912;SDS011;1466;48.778;9.166;2024-03-07T04:11:30;57.90;;;25.50;;
2912;SDS011;1466;48.778;9.166;2024-03-07T04:13:56;61.10;;;26.97;;
2912;SDS011;1466;48.778;9.166;2024-03-07T04:16:21;64.03;;;27.80;;
2912;SDS011;1466;48.778;9.166;2024-03-07T04:18:48;66.28;;;26.83;;
2912;SDS011;1466;48.778;9.166;2024-03-07T04:21:13;60.70;;;27.50;;
2912;SDS011;1466;48.778;9.166;2024-03-07T04:23:42;56.03;;;24.53;;
2912;SDS011;1466;48.778;9.166;2024-03-07T04:26:10;51.88;;;22.27;;
2912;SDS011;1466;48.778;9.166;2024-03-07T04:28:36;66.80;;;27.10;;
2912;SDS011;1466;48.778;9.166;2024-03-07T04:31:02;55.47;;;25.30;;
2912;SDS011;1466;48.778;9.166;2024-03-07T04:33:28;53.87;;;24.50;;
2912;SDS011;1466;48.778;9.166;2024-03-07T04:35:53;61.30;;;25.33;;
2912;SDS011;1466;48.778;9.166;2024-03-07T04:38:19;56.13;;;24.33;;
2912;SDS011;1466;48.778;9.166;2024-03-07T04:40:44;63.23;;;25.50;;
2912;SDS011;1466;48.778;9.166;2024-03-07T04:43:11;57.30;;;24.77;;
2912;SDS011;1466;48.778;9.166;2024-03-07T04:45:37;52.60;;;24.00;;
2912;SDS011;1466;48.778;9.166;2024-03-07T04:48:03;52.87;;;23.40;;
2912;SDS011;1466;48.778;9.166;2024-03-07T04:50:30;53.78;;;23.77;;
2912;SDS011;1466;48.778;9.166;2024-03-07T04:52:56;72.80;;;27.70;;
2912;SDS011;1466;48.778;9.166;2024-03-07T04:55:21;56.03;;;26.77;;
2912;SDS011;1466;48.778;9.166;2024-03-07T04:57:47;56.40;;;27.27;;
2912;SDS011;1466;48.778;9.166;2024-03-07T05:00:13;69.23;;;26.07;;
2912;SDS011;1466;48.778;9.166;2024-03-07T05:02:42;58.60;;;27.35;;
2912;SDS011;1466;48.778;9.166;2024-03-07T05:05:09;79.65;;;27.05;;
2912;SDS011;1466;48.778;9.166;2024-03-07T05:07:35;65.13;;;25.70;;
2912;SDS011;1466;48.778;9.166;2024-03-07T05:10:01;48.00;;;24.65;;
2912;SDS011;1466;48.778;9.166;2024-03-07T05:12:31;59.47;;;27.02;;
2912;SDS011;1466;48.778;9.166;2024-03-07T05:14:57;63.73;;;25.27;;
2912;SDS011;1466;48.778;9.166;2024-03-07T05:17:22;62.90;;;25.00;;
2912;SDS011;1466;48.778;9.166;2024-03-07T05:19:48;59.70;;;24.53;;
2912;SDS011;1466;48.778;9.166;2024-03-07T05:22:14;59.45;;;27.02;;
2912;SDS011;1466;48.778;9.166;2024-03-07T05:24:44;61.47;;;24.70;;
2912;SDS011;1466;48.778;9.166;2024-03-07T05:27:09;62.75;;;26.02;;
2912;SDS011;1466;48.778;9.166;2024-03-07T05:29:36;64.40;;;27.75;;
2912;SDS011;1466;48.778;9.166;2024-03-07T05:35:04;55.03;;;24.05;;
2912;SDS011;1466;48.778;9.166;2024-03-07T05:37:31;80.88;;;28.50;;
2912;SDS011;1466;48.778;9.166;2024-03-07T05:39:57;67.80;;;26.50;;
2912;SDS011;1466;48.778;9.166;2024-03-07T05:42:22;65.20;;;23.30;;
2912;SDS011;1466;48.778;9.166;2024-03-07T05:44:50;67.95;;;28.40;;
2912;SDS011;1466;48.778;9.166;2024-03-07T05:47:15;62.10;;;27.50;;
2912;SDS011;1466;48.778;9.166;2024-03-07T05:49:42;72.95;;;25.95;;
2912;SDS011;1466;48.778;9.166;2024-03-07T05:52:08;62.40;;;24.87;;
2912;SDS011;1466;48.778;9.166;2024-03-07T05:54:34;51.95;;;24.40;;
2912;SDS011;1466;48.778;9.166;2024-03-07T05:57:00;64.55;;;25.50;;
2912;SDS011;1466;48.778;9.166;2024-03-07T05:59:32;62.65;;;24.77;;
2912;SDS011;1466;48.778;9.166;2024-03-07T06:01:57;56.92;;;23.98;;
2912;SDS011;1466;48.778;9.166;2024-03-07T06:04:23;59.83;;;25.53;;
2912;SDS011;1466;48.778;9.166;2024-03-07T06:06:49;51.63;;;23.57;;
2912;SDS011;1466;48.778;9.166;2024-03-07T06:09:15;50.90;;;23.07;;
2912;SDS011;1466;48.778;9.166;2024-03-07T06:11:46;66.40;;;25.88;;
2912;SDS011;1466;48.778;9.166;2024-03-07T06:14:12;62.65;;;25.35;;
2912;SDS011;1466;48.778;9.166;2024-03-07T06:16:38;58.25;;;24.33;;
2912;SDS011;1466;48.778;9.166;2024-03-07T06:19:06;56.78;;;23.85;;
2912;SDS011;1466;48.778;9.166;2024-03-07T06:21:33;57.47;;;24.33;;
2912;SDS011;1466;48.778;9.166;2024-03-07T06:24:00;67.68;;;26.55;;
2912;SDS011;1466;48.778;9.166;2024-03-07T06:26:30;58.47;;;25.90;;
2912;SDS011;1466;48.778;9.166;2024-03-07T06:29:24;57.53;;;23.20;;
2912;SDS011;1466;48.778;9.166;2024-03-07T06:31:53;62.40;;;26.08;;
2912;SDS011;1466;48.778;9.166;2024-03-07T06:34:19;70.37;;;24.97;;
2912;SDS011;1466;48.778;9.166;2024-03-07T06:36:45;65.23;;;25.03;;
2912;SDS011;1466;48.778;9.166;2024-03-07T06:39:10;53.20;;;22.60;;
2912;SDS011;1466;48.778;9.166;2024-03-07T06:41:37;60.10;;;23.38;;
2912;SDS011;1466;48.778;9.166;2024-03-07T06:44:03;72.28;;;26.50;;
2912;SDS011;1466;48.778;9.166;2024-03-07T06:46:29;69.47;;;25.00;;
2912;SDS011;1466;48.778;9.166;2024-03-07T06:48:54;60.13;;;23.13;;
2912;SDS011;1466;48.778;9.166;2024-03-07T06:51:21;58.13;;;23.20;;
2912;SDS011;1466;48.778;9.166;2024-03-07T06:53:47;72.50;;;25.73;;
2912;SDS011;1466;48.778;9.166;2024-03-07T06:56:13;58.43;;;22.87;;
2912;SDS011;1466;48.778;9.166;2024-03-07T06:58:41;54.35;;;21.63;;
2912;SDS011;1466;48.778;9.166;2024-03-07T07:01:07;58.37;;;23.90;;
2912;SDS011;1466;48.778;9.166;2024-03-07T07:03:36;46.50;;;19.38;;
2912;SDS011;1466;48.778;9.166;2024-03-07T07:06:02;51.45;;;21.08;;
2912;SDS011;1466;48.778;9.166;2024-03-07T07:08:30;49.75;;;22.73;;
2912;SDS011;1466;48.778;9.166;2024-03-07T07:10:55;45.30;;;21.10;;
2912;SDS011;1466;48.778;9.166;2024-03-07T07:13:22;60.03;;;22.13;;
2912;SDS011;1466;48.778;9.166;2024-03-07T07:15:51;55.60;;;22.67;;
2912;SDS011;1466;48.778;9.166;2024-03-07T07:18:18;54.80;;;21.10;;
2912;SDS011;1466;48.778;9.166;2024-03-07T07:20:44;62.20;;;23.33;;
2912;SDS011;1466;48.778;9.166;2024-03-07T07:23:09;45.53;;;20.20;;
2912;SDS011;1466;48.778;9.166;2024-03-07T07:25:35;51.87;;;21.60;;
2912;SDS011;1466;48.778;9.166;2024-03-07T07:28:00;46.07;;;20.87;;
2912;SDS011;1466;48.778;9.166;2024-03-07T07:30:29;55.35;;;21.38;;
2912;SDS011;1466;48.778;9.166;2024-03-07T07:32:55;45.00;;;19.47;;
2912;SDS011;1466;48.778;9.166;2024-03-07T07:35:21;50.53;;;20.07;;
2912;SDS011;1466;48.778;9.166;2024-03-07T07:37:48;50.63;;;22.00;;
2912;SDS011;1466;48.778;9.166;2024-03-07T07:40:16;58.50;;;22.70;;
2912;SDS011;1466;48.778;9.166;2024-03-07T07:42:43;50.33;;;21.38;;
2912;SDS011;1466;48.778;9.166;2024-03-07T07:45:11;50.20;;;21.63;;
2912;SDS011;1466;48.778;9.166;2024-03-07T07:47:38;53.03;;;21.73;;
2912;SDS011;1466;48.778;9.166;2024-03-07T07:50:08;47.85;;;19.90;;
2912;SDS011;1466;48.778;9.166;2024-03-07T07:55:13;43.88;;;20.40;;
2912;SDS011;1466;48.778;9.166;2024-03-07T07:57:46;58.85;;;23.75;;
2912;SDS011;1466;48.778;9.166;2024-03-07T08:00:14;58.15;;;23.00;;
2912;SDS011;1466;48.778;9.166;2024-03-07T08:02:47;48.80;;;20.85;;
2912;SDS011;1466;48.778;9.166;2024-03-07T08:05:17;51.78;;;20.75;;
2912;SDS011;1466;48.778;9.166;2024-03-07T08:07:46;51.35;;;20.83;;
2912;SDS011;1466;48.778;9.166;2024-03-07T08:10:13;62.40;;;24.85;;
2912;SDS011;1466;48.778;9.166;2024-03-07T08:12:39;54.50;;;21.70;;
2912;SDS011;1466;48.778;9.166;2024-03-07T08:15:08;59.17;;;21.05;;
2912;SDS011;1466;48.778;9.166;2024-03-07T08:17:38;46.15;;;19.85;;
2912;SDS011;1466;48.778;9.166;2024-03-07T08:22:41;54.38;;;18.23;;
2912;SDS011;1466;48.778;9.166;2024-03-07T08:27:40;41.42;;;17.25;;
2912;SDS011;1466;48.778;9.166;2024-03-07T08:30:07;49.40;;;20.60;;
2912;SDS011;1466;48.778;9.166;2024-03-07T08:32:49;49.85;;;17.52;;
2912;SDS011;1466;48.778;9.166;2024-03-07T08:35:19;46.75;;;18.10;;
2912;SDS011;1466;48.778;9.166;2024-03-07T08:37:45;41.07;;;16.73;;
2912;SDS011;1466;48.778;9.166;2024-03-07T08:40:18;45.45;;;19.25;;
2912;SDS011;1466;48.778;9.166;2024-03-07T08:42:45;45.70;;;20.05;;
2912;SDS011;1466;48.778;9.166;2024-03-07T08:45:12;51.28;;;20.90;;
2912;SDS011;1466;48.778;9.166;2024-03-07T08:47:42;45.72;;;19.33;;
2912;SDS011;1466;48.778;9.166;2024-03-07T08:50:08;39.35;;;17.10;;
2912;SDS011;1466;48.778;9.166;2024-03-07T08:52:34;46.33;;;19.63;;
2912;SDS011;1466;48.778;9.166;2024-03-07T08:55:05;43.15;;;18.73;;
2912;SDS011;1466;48.778;9.166;2024-03-07T08:57:34;39.75;;;19.83;;
2912;SDS011;1466;48.778;9.166;2024-03-07T09:00:01;59.33;;;20.42;;
2912;SDS011;1466;48.778;9.166;2024-03-07T09:02:33;45.15;;;18.63;;
2912;SDS011;1466;48.778;9.166;2024-03-07T09:04:59;43.08;;;19.60;;
2912;SDS011;1466;48.778;9.166;2024-03-07T09:07:26;52.65;;;19.92;;
2912;SDS011;1466;48.778;9.166;2024-03-07T09:09:54;51.90;;;19.85;;
2912;SDS011;1466;48.778;9.166;2024-03-07T09:12:20;53.57;;;19.97;;
2912;SDS011;1466;48.778;9.166;2024-03-07T09:14:45;43.73;;;19.47;;
2912;SDS011;1466;48.778;9.166;2024-03-07T09:17:11;49.73;;;19.97;;
2912;SDS011;1466;48.778;9.166;2024-03-07T09:19:37;56.53;;;20.70;;
2912;SDS011;1466;48.778;9.166;2024-03-07T09:22:03;49.40;;;19.80;;
2912;SDS011;1466;48.778;9.166;2024-03-07T09:24:30;44.47;;;18.65;;
2912;SDS011;1466;48.778;9.166;2024-03-07T09:26:56;55.72;;;23.38;;
2912;SDS011;1466;48.778;9.166;2024-03-07T09:29:22;50.00;;;20.63;;
2912;SDS011;1466;48.778;9.166;2024-03-07T09:31:51;50.90;;;19.30;;
2912;SDS011;1466;48.778;9.166;2024-03-07T09:34:18;57.08;;;20.27;;
2912;SDS011;1466;48.778;9.166;2024-03-07T09:36:46;44.92;;;19.70;;
2912;SDS011;1466;48.778;9.166;2024-03-07T09:39:15;47.88;;;21.33;;
2912;SDS011;1466;48.778;9.166;2024-03-07T09:41:41;46.08;;;20.63;;
2912;SDS011;1466;48.778;9.166;2024-03-07T09:44:14;46.10;;;19.23;;
2912;SDS011;1466;48.778;9.166;2024-03-07T09:46:46;47.13;;;20.73;;
2912;SDS011;1466;48.778;9.166;2024-03-07T09:49:14;48.60;;;19.98;;
2912;SDS011;1466;48.778;9.166;2024-03-07T09:51:40;56.35;;;20.98;;
2912;SDS011;1466;48.778;9.166;2024-03-07T09:54:07;47.03;;;20.75;;
2912;SDS011;1466;48.778;9.166;2024-03-07T09:56:34;52.55;;;21.73;;
2912;SDS011;1466;48.778;9.166;2024-03-07T09:59:02;51.47;;;21.35;;
2912;SDS011;1466;48.778;9.166;2024-03-07T10:01:29;50.58;;;21.50;;
2912;SDS011;1466;48.778;9.166;2024-03-07T10:03:59;44.17;;;20.52;;
2912;SDS011;1466;48.778;9.166;2024-03-07T10:06:36;46.33;;;19.45;;
2912;SDS011;1466;48.778;9.166;2024-03-07T10:09:04;41.72;;;20.08;;
2912;SDS011;1466;48.778;9.166;2024-03-07T10:11:31;42.92;;;20.58;;
2912;SDS011;1466;48.778;9.166;2024-03-07T10:13:57;43.83;;;19.60;;
2912;SDS011;1466;48.778;9.166;2024-03-07T10:16:23;51.00;;;20.27;;
2912;SDS011;1466;48.778;9.166;2024-03-07T10:18:49;50.92;;;20.70;;
2912;SDS011;1466;48.778;9.166;2024-03-07T10:21:18;57.43;;;22.00;;
2912;SDS011;1466;48.778;9.166;2024-03-07T10:23:49;56.10;;;23.33;;
2912;SDS011;1466;48.778;9.166;2024-03-07T10:26:18;56.80;;;21.15;;
2912;SDS011;1466;48.778;9.166;2024-03-07T10:28:44;52.75;;;21.95;;
2912;SDS011;1466;48.778;9.166;2024-03-07T10:31:10;42.60;;;19.97;;
2912;SDS011;1466;48.778;9.166;2024-03-07T10:33:40;43.55;;;20.02;;
2912;SDS011;1466;48.778;9.166;2024-03-07T10:36:06;46.97;;;21.43;;
2912;SDS011;1466;48.778;9.166;2024-03-07T10:38:35;50.40;;;23.75;;
2912;SDS011;1466;48.778;9.166;2024-03-07T10:41:05;49.22;;;19.55;;
2912;SDS011;1466;48.778;9.166;2024-03-07T10:43:34;45.92;;;21.00;;
2912;SDS011;1466;48.778;9.166;2024-03-07T10:46:05;49.95;;;21.20;;
2912;SDS011;1466;48.778;9.166;2024-03-07T10:48:33;43.22;;;19.55;;
2912;SDS011;1466;48.778;9.166;2024-03-07T10:53:59;43.03;;;18.90;;
2912;SDS011;1466;48.778;9.166;2024-03-07T10:59:25;62.97;;;23.83;;
2912;SDS011;1466;48.778;9.166;2024-03-07T11:04:54;57.22;;;22.98;;
2912;SDS011;1466;48.778;9.166;2024-03-07T11:07:21;48.00;;;20.05;;
2912;SDS011;1466;48.778;9.166;2024-03-07T11:09:51;59.25;;;22.00;;
2912;SDS011;1466;48.778;9.166;2024-03-07T11:12:26;51.83;;;21.25;;
2912;SDS011;1466;48.778;9.166;2024-03-07T11:14:53;56.85;;;21.77;;
2912;SDS011;1466;48.778;9.166;2024-03-07T11:17:21;44.40;;;20.83;;
2912;SDS011;1466;48.778;9.166;2024-03-07T11:19:48;56.75;;;22.95;;
2912;SDS011;1466;48.778;9.166;2024-03-07T11:22:30;43.25;;;22.08;;
2912;SDS011;1466;48.778;9.166;2024-03-07T11:25:04;47.88;;;20.13;;
2912;SDS011;1466;48.778;9.166;2024-03-07T11:27:39;48.00;;;21.40;;
2912;SDS011;1466;48.778;9.166;2024-03-07T11:30:05;61.47;;;23.92;;
2912;SDS011;1466;48.778;9.166;2024-03-07T11:32:35;55.10;;;21.40;;
2912;SDS011;1466;48.778;9.166;2024-03-07T11:35:04;42.83;;;20.75;;
2912;SDS011;1466;48.778;9.166;2024-03-07T11:37:42;46.72;;;19.90;;
2912;SDS011;1466;48.778;9.166;2024-03-07T11:42:50;56.88;;;21.52;;
2912;SDS011;1466;48.778;9.166;2024-03-07T11:45:19;63.25;;;23.25;;
2912;SDS011;1466;48.778;9.166;2024-03-07T11:47:53;51.35;;;22.88;;
2912;SDS011;1466;48.778;9.166;2024-03-07T11:50:24;55.00;;;19.20;;
2912;SDS011;1466;48.778;9.166;2024-03-07T11:52:53;55.65;;;23.20;;
2912;SDS011;1466;48.778;9.166;2024-03-07T11:55:23;50.15;;;21.70;;
2912;SDS011;1466;48.778;9.166;2024-03-07T11:57:49;42.72;;;18.13;;
2912;SDS011;1466;48.778;9.166;2024-03-07T12:00:18;55.35;;;21.35;;
2912;SDS011;1466;48.778;9.166;2024-03-07T12:02:45;52.30;;;21.35;;
2912;SDS011;1466;48.778;9.166;2024-03-07T12:05:13;45.53;;;19.52;;
2912;SDS011;1466;48.778;9.166;2024-03-07T12:07:40;54.28;;;21.73;;
2912;SDS011;1466;48.778;9.166;2024-03-07T12:10:06;39.63;;;19.10;;
2912;SDS011;1466;48.778;9.166;2024-03-07T12:12:32;43.35;;;20.95;;
2912;SDS011;1466;48.778;9.166;2024-03-07T12:14:58;35.97;;;15.93;;
2912;SDS011;1466;48.778;9.166;2024-03-07T12:17:24;49.90;;;21.43;;
2912;SDS011;1466;48.778;9.166;2024-03-07T12:19:51;53.00;;;21.57;;
2912;SDS011;1466;48.778;9.166;2024-03-07T12:22:20;51.08;;;20.25;;
2912;SDS011;1466;48.778;9.166;2024-03-07T12:25:01;46.08;;;16.60;;
2912;SDS011;1466;48.778;9.166;2024-03-07T12:27:30;56.05;;;21.55;;
2912;SDS011;1466;48.778;9.166;2024-03-07T12:29:56;54.00;;;22.10;;
2912;SDS011;1466;48.778;9.166;2024-03-07T12:32:22;57.73;;;22.93;;
2912;SDS011;1466;48.778;9.166;2024-03-07T12:34:49;49.10;;;19.60;;
2912;SDS011;1466;48.778;9.166;2024-03-07T12:37:17;43.65;;;18.88;;
2912;SDS011;1466;48.778;9.166;2024-03-07T12:39:44;53.57;;;21.93;;
2912;SDS011;1466;48.778;9.166;2024-03-07T12:42:17;51.83;;;22.15;;
2912;SDS011;1466;48.778;9.166;2024-03-07T12:44:44;48.22;;;20.45;;
2912;SDS011;1466;48.778;9.166;2024-03-07T12:47:13;59.97;;;23.13;;
2912;SDS011;1466;48.778;9.166;2024-03-07T12:49:42;47.85;;;21.27;;
2912;SDS011;1466;48.778;9.166;2024-03-07T12:52:09;45.40;;;19.23;;
2912;SDS011;1466;48.778;9.166;2024-03-07T12:54:37;43.95;;;20.88;;
2912;SDS011;1466;48.778;9.166;2024-03-07T12:57:06;58.17;;;24.35;;
2912;SDS011;1466;48.778;9.166;2024-03-07T12:59:34;64.50;;;23.05;;
2912;SDS011;1466;48.778;9.166;2024-03-07T13:02:02;59.38;;;22.00;;
2912;SDS011;1466;48.778;9.166;2024-03-07T13:04:28;51.55;;;21.40;;
2912;SDS011;1466;48.778;9.166;2024-03-07T13:06:55;52.28;;;20.65;;
2912;SDS011;1466;48.778;9.166;2024-03-07T13:09:24;47.72;;;19.38;;
2912;SDS011;1466;48.778;9.166;2024-03-07T13:11:52;47.80;;;19.42;;
2912;SDS011;1466;48.778;9.166;2024-03-07T13:14:18;47.78;;;21.75;;
2912;SDS011;1466;48.778;9.166;2024-03-07T13:16:44;49.40;;;22.83;;
2912;SDS011;1466;48.778;9.166;2024-03-07T13:19:10;51.47;;;22.40;;
2912;SDS011;1466;48.778;9.166;2024-03-07T13:21:37;51.97;;;22.58;;
2912;SDS011;1466;48.778;9.166;2024-03-07T13:24:04;50.88;;;22.88;;
2912;SDS011;1466;48.778;9.166;2024-03-07T13:26:30;51.92;;;21.90;;
2912;SDS011;1466;48.778;9.166;2024-03-07T13:28:57;53.30;;;23.27;;
2912;SDS011;1466;48.778;9.166;2024-03-07T13:31:26;59.92;;;22.77;;
2912;SDS011;1466;48.778;9.166;2024-03-07T13:33:53;50.40;;;22.85;;
2912;SDS011;1466;48.778;9.166;2024-03-07T13:36:20;51.65;;;22.77;;
2912;SDS011;1466;48.778;9.166;2024-03-07T13:38:48;32.75;;;14.38;;
2912;SDS011;1466;48.778;9.166;2024-03-07T13:41:17;53.25;;;22.15;;
2912;SDS011;1466;48.778;9.166;2024-03-07T13:43:44;58.45;;;21.80;;
2912;SDS011;1466;48.778;9.166;2024-03-07T13:46:10;53.47;;;22.10;;
2912;SDS011;1466;48.778;9.166;2024-03-07T13:48:37;42.92;;;21.95;;
2912;SDS011;1466;48.778;9.166;2024-03-07T13:51:03;51.38;;;22.73;;
2912;SDS011;1466;48.778;9.166;2024-03-07T13:53:33;50.20;;;22.92;;
2912;SDS011;1466;48.778;9.166;2024-03-07T14:12:50;52.95;;;23.48;;
2912;SDS011;1466;48.778;9.166;2024-03-07T14:18:51;53.10;;;22.77;;
2912;SDS011;1466;48.778;9.166;2024-03-07T14:24:08;43.78;;;21.00;;
2912;SDS011;1466;48.778;9.166;2024-03-07T14:33:00;48.33;;;22.77;;
2912;SDS011;1466;48.778;9.166;2024-03-07T14:39:15;47.30;;;22.33;;
2912;SDS011;1466;48.778;9.166;2024-03-07T14:41:19;60.88;;;22.88;;
2912;SDS011;1466;48.778;9.166;2024-03-07T14:43:47;49.67;;;22.48;;
2912;SDS011;1466;48.778;9.166;2024-03-07T14:46:14;45.73;;;19.70;;
2912;SDS011;1466;48.778;9.166;2024-03-07T14:48:41;40.75;;;17.50;;
2912;SDS011;1466;48.778;9.166;2024-03-07T14:51:07;29.80;;;13.80;;
2912;SDS011;1466;48.778;9.166;2024-03-07T14:53:38;53.33;;;21.90;;
2912;SDS011;1466;48.778;9.166;2024-03-07T14:56:07;52.80;;;21.00;;
2912;SDS011;1466;48.778;9.166;2024-03-07T14:58:34;58.50;;;23.77;;
2912;SDS011;1466;48.778;9.166;2024-03-07T15:01:00;58.28;;;23.98;;
2912;SDS011;1466;48.778;9.166;2024-03-07T15:03:26;63.60;;;24.70;;
2912;SDS011;1466;48.778;9.166;2024-03-07T15:05:55;46.95;;;20.77;;
2912;SDS011;1466;48.778;9.166;2024-03-07T15:08:21;59.03;;;22.70;;
2912;SDS011;1466;48.778;9.166;2024-03-07T15:10:50;47.33;;;20.88;;
2912;SDS011;1466;48.778;9.166;2024-03-07T15:13:21;57.78;;;22.33;;
2912;SDS011;1466;48.778;9.166;2024-03-07T15:15:47;47.78;;;21.88;;
2912;SDS011;1466;48.778;9.166;2024-03-07T15:18:13;50.07;;;21.73;;
2912;SDS011;1466;48.778;9.166;2024-03-07T15:20:38;44.43;;;19.00;;
2912;SDS011;1466;48.778;9.166;2024-03-07T15:23:04;40.00;;;14.30;;
2912;SDS011;1466;48.778;9.166;2024-03-07T15:25:31;60.45;;;22.27;;
2912;SDS011;1466;48.778;9.166;2024-03-07T15:27:57;40.72;;;17.10;;
2912;SDS011;1466;48.778;9.166;2024-03-07T15:30:24;51.05;;;20.38;;
2912;SDS011;1466;48.778;9.166;2024-03-07T15:32:57;39.65;;;16.70;;
2912;SDS011;1466;48.778;9.166;2024-03-07T15:35:23;46.00;;;19.60;;
2912;SDS011;1466;48.778;9.166;2024-03-07T15:37:51;45.80;;;16.92;;
2912;SDS011;1466;48.778;9.166;2024-03-07T15:40:18;58.00;;;23.55;;
2912;SDS011;1466;48.778;9.166;2024-03-07T15:42:49;45.13;;;19.45;;
2912;SDS011;1466;48.778;9.166;2024-03-07T15:45:19;43.45;;;21.20;;